Time;durP1;ratioP1;P1;durP2;ratioP2;P2;SDS_P1;SDS_P2;PMS_P1;PMS_P2;Temp;Humidity;BMP_temperature;BMP_pressure;BME280_temperature;BME280_humidity;BME280_pressure;Samples;Min_cycle;Max_cycle;Signal;HPM_P1;HPM_P2
2021/08/19 00:01:40;;;;;;;6.33;3.80;;;;;;;12.67;72.19;96586.13;127567;1093;25293;-83
2021/08/19 00:04:11;;;;;;;5.10;3.15;;;;;;;12.69;72.18;96586.63;127600;1093;29077;-82
2021/08/19 00:06:42;;;;;;;5.88;3.83;;;;;;;12.64;72.13;96589.34;127624;1092;23420;-82
2021/08/19 00:09:14;;;;;;;6.70;3.75;;;;;;;12.64;72.06;96578.70;127557;1093;28172;-83
2021/08/19 00:11:46;;;;;;;5.98;3.65;;;;;;;12.63;72.03;96585.11;127663;1093;23762;-82
2021/08/19 00:14:17;;;;;;;5.83;3.45;;;;;;;12.62;72.27;96588.85;127602;1093;27251;-82
2021/08/19 00:16:49;;;;;;;5.15;3.35;;;;;;;12.60;72.34;96583.04;127633;1093;23322;-82
2021/08/19 00:19:20;;;;;;;5.47;3.10;;;;;;;12.56;72.52;96584.71;127625;1093;28353;-82
2021/08/19 00:21:52;;;;;;;5.30;3.10;;;;;;;12.55;72.52;96583.14;127552;1093;29880;-82
2021/08/19 00:24:24;;;;;;;5.28;2.95;;;;;;;12.58;72.55;96585.20;127576;1093;30149;-82
2021/08/19 00:26:55;;;;;;;5.73;3.55;;;;;;;12.57;72.72;96579.09;127552;1093;25818;-82
2021/08/19 00:29:35;;;;;;;6.13;3.33;;;;;;;12.58;72.68;96583.33;127511;1096;30048;-82
2021/08/19 00:32:09;;;;;;;6.20;3.50;;;;;;;12.56;72.62;96580.18;127550;1096;23423;-82
2021/08/19 00:34:40;;;;;;;5.63;3.65;;;;;;;12.53;72.81;96577.29;127545;1096;29287;-83
2021/08/19 00:37:11;;;;;;;6.23;3.30;;;;;;;12.51;72.75;96576.80;127548;1096;23907;-82
2021/08/19 00:39:44;;;;;;;5.95;3.43;;;;;;;12.49;72.97;96575.22;127519;1096;23250;-81
2021/08/19 00:42:17;;;;;;;5.33;3.40;;;;;;;12.47;72.99;96581.91;127602;1096;23036;-82
2021/08/19 00:44:49;;;;;;;6.23;3.45;;;;;;;12.47;73.02;96576.59;127546;1097;30648;-82
2021/08/19 00:47:20;;;;;;;7.68;3.20;;;;;;;12.47;73.00;96577.38;127653;1097;28656;-83
2021/08/19 00:49:53;;;;;;;5.53;3.10;;;;;;;12.47;73.29;96582.70;127536;1096;28050;-82
2021/08/19 00:52:24;;;;;;;5.58;3.40;;;;;;;12.49;73.17;96575.22;127549;1096;30048;-81
2021/08/19 00:54:57;;;;;;;6.18;3.40;;;;;;;12.49;73.22;96575.22;127560;1094;23920;-82
2021/08/19 00:57:29;;;;;;;5.28;3.50;;;;;;;12.47;73.12;96581.91;127558;1095;24710;-83
2021/08/19 01:00:02;;;;;;;4.63;3.07;;;;;;;12.48;73.34;96576.30;127486;1096;90428;-82
2021/08/19 01:02:33;;;;;;;5.70;3.18;;;;;;;12.51;73.44;96582.91;127535;1096;45105;-82
2021/08/19 01:05:08;;;;;;;7.33;3.43;;;;;;;12.52;73.62;96584.48;127495;1095;35291;-82
2021/08/19 01:07:39;;;;;;;5.38;3.15;;;;;;;12.53;73.33;96585.27;127578;1093;23865;-82
2021/08/19 01:10:12;;;;;;;4.63;2.85;;;;;;;12.55;73.56;96583.92;127566;1093;25864;-82
2021/08/19 01:12:44;;;;;;;5.68;3.10;;;;;;;12.57;73.52;96586.29;127588;1092;24762;-82
2021/08/19 01:15:15;;;;;;;7.05;3.50;;;;;;;12.58;73.51;96590.52;127540;1093;51013;-82
2021/08/19 01:17:57;;;;;;;5.55;3.03;;;;;;;12.62;73.65;96594.17;127659;1093;25339;-82
2021/08/19 01:20:30;;;;;;;5.10;3.20;;;;;;;12.65;73.66;96589.05;127554;1093;24199;-81
2021/08/19 01:23:03;;;;;;;5.40;3.13;;;;;;;12.72;73.72;96588.69;127580;1093;25445;-82
2021/08/19 01:25:35;;;;;;;8.10;3.58;;;;;;;12.77;73.44;96591.25;127554;1093;26825;-82
2021/08/19 01:28:06;;;;;;;4.90;3.33;;;;;;;12.79;73.50;96592.53;127559;1093;24485;-82
2021/08/19 01:30:38;;;;;;;7.55;2.80;;;;;;;12.83;73.78;96590.10;127545;1093;29421;-81
2021/08/19 01:33:09;;;;;;;6.25;3.10;;;;;;;12.86;73.70;96580.74;127591;1092;34053;-83
2021/08/19 01:35:41;;;;;;;4.40;2.85;;;;;;;12.88;73.70;96592.66;127588;1092;26121;-82
2021/08/19 01:38:12;;;;;;;5.43;3.13;;;;;;;12.91;73.70;96597.39;127573;1093;48640;-82
2021/08/19 01:40:44;;;;;;;5.80;2.80;;;;;;;12.93;73.62;96583.80;127552;1093;26553;-82
2021/08/19 01:43:15;;;;;;;7.45;3.45;;;;;;;12.94;73.57;96583.50;127537;1093;24098;-82
2021/08/19 01:45:47;;;;;;;5.33;3.25;;;;;;;12.96;73.43;96584.02;127674;1093;23018;-82
2021/08/19 01:48:19;;;;;;;6.23;3.33;;;;;;;12.96;73.56;96577.91;127841;1092;27896;-82
2021/08/19 01:50:50;;;;;;;5.73;3.10;;;;;;;12.94;73.37;96583.50;127649;1093;23468;-81
2021/08/19 01:53:22;;;;;;;7.38;3.10;;;;;;;12.94;73.39;96580.84;127585;1093;31248;-82
2021/08/19 01:55:54;;;;;;;5.70;2.90;;;;;;;12.93;73.34;96581.13;127545;1093;25106;-82
2021/08/19 01:58:26;;;;;;;4.00;3.00;;;;;;;12.89;73.41;96578.28;127595;1093;23609;-81
2021/08/19 02:00:58;;;;;;;5.35;3.38;;;;;;;12.87;73.33;96577.78;127632;1093;22822;-82
2021/08/19 02:03:29;;;;;;;4.75;2.78;;;;;;;12.86;73.41;96570.89;127629;1093;24018;-82
2021/08/19 02:06:00;;;;;;;6.38;3.00;;;;;;;12.89;73.67;96580.15;127591;1093;27386;-83
2021/08/19 02:08:32;;;;;;;4.78;3.03;;;;;;;12.90;73.48;96565.77;127605;1093;23081;-82
2021/08/19 02:11:03;;;;;;;5.33;2.90;;;;;;;12.90;73.27;96571.88;127573;1093;23242;-82
2021/08/19 02:13:38;;;;;;;4.98;3.35;;;;;;;12.90;73.26;96579.85;127592;1093;22974;-82
2021/08/19 02:16:09;;;;;;;4.80;2.63;;;;;;;12.92;73.21;96575.02;127608;1093;22810;-82
2021/08/19 02:18:40;;;;;;;5.23;2.75;;;;;;;12.90;73.32;96574.53;127579;1093;26706;-83
2021/08/19 02:21:12;;;;;;;5.50;3.55;;;;;;;12.82;73.17;96577.89;127591;1093;33596;-82
2021/08/19 02:23:43;;;;;;;4.63;3.08;;;;;;;12.74;73.29;96573.23;127603;1093;22829;-83
2021/08/19 02:26:15;;;;;;;6.75;2.98;;;;;;;12.67;73.36;96568.30;127585;1093;26555;-82
2021/08/19 02:28:46;;;;;;;7.40;3.35;;;;;;;12.66;73.52;96576.55;127576;1093;27921;-82
2021/08/19 02:31:18;;;;;;;5.45;2.98;;;;;;;12.60;73.51;96569.74;127619;1093;39506;-82
2021/08/19 02:33:49;;;;;;;4.67;2.83;;;;;;;12.54;73.68;96574.37;127640;1093;22829;-82
2021/08/19 02:36:20;;;;;;;6.73;3.08;;;;;;;12.46;73.79;96565.17;127634;1093;25233;-82
2021/08/19 02:38:52;;;;;;;5.00;2.83;;;;;;;12.41;73.95;96565.27;127594;1093;24388;-82
2021/08/19 02:41:23;;;;;;;4.63;2.68;;;;;;;12.36;74.13;96561.88;127535;1093;30521;-83
2021/08/19 02:43:54;;;;;;;4.95;2.95;;;;;;;12.35;74.38;96561.09;127575;1092;27454;-82
2021/08/19 02:46:28;;;;;;;4.83;2.98;;;;;;;12.37;74.30;96561.59;127617;1093;59137;-82
2021/08/19 02:48:59;;;;;;;4.15;2.93;;;;;;;12.34;74.30;96559.52;127567;1093;25960;-83
2021/08/19 02:51:31;;;;;;;8.18;3.20;;;;;;;12.30;74.42;96555.86;127543;1093;27157;-82
2021/08/19 02:54:02;;;;;;;5.58;2.98;;;;;;;12.28;74.58;96560.69;127569;1093;24364;-82
2021/08/19 02:56:35;;;;;;;5.10;2.95;;;;;;;12.31;74.73;96562.76;127598;1093;27426;-82
2021/08/19 02:59:06;;;;;;;3.78;2.83;;;;;;;12.33;75.01;96560.59;127676;1093;27109;-82
2021/08/19 03:01:38;;;;;;;4.78;2.65;;;;;;;12.36;74.95;96565.33;127650;1093;27087;-81
2021/08/19 03:04:10;;;;;;;4.60;2.60;;;;;;;12.39;75.40;96556.80;127720;1093;26357;-82
2021/08/19 03:06:41;;;;;;;6.48;3.10;;;;;;;12.43;75.48;96565.76;127729;1093;23566;-83
2021/08/19 03:09:13;;;;;;;4.88;2.63;;;;;;;12.45;75.65;96568.91;127619;1093;29499;-83
2021/08/19 03:11:44;;;;;;;6.73;2.85;;;;;;;12.46;75.43;96570.48;127575;1093;27482;-83
2021/08/19 03:14:16;;;;;;;5.73;3.08;;;;;;;12.53;75.62;96578.11;127564;1093;22799;-83
2021/08/19 03:16:47;;;;;;;5.88;3.13;;;;;;;12.58;75.68;96575.36;127643;1093;27203;-82
2021/08/19 03:19:19;;;;;;;4.48;3.03;;;;;;;12.58;75.56;96569.25;127647;1093;23676;-82
2021/08/19 03:21:50;;;;;;;4.08;2.70;;;;;;;12.59;75.67;96568.16;127613;1093;23572;-83
2021/08/19 03:24:22;;;;;;;5.88;2.88;;;;;;;12.61;75.69;96577.42;127576;1093;24728;-81
2021/08/19 03:26:53;;;;;;;4.35;2.75;;;;;;;12.65;75.82;96574.97;127549;1093;23696;-81
2021/08/19 03:29:25;;;;;;;4.15;2.70;;;;;;;12.66;75.95;96574.67;127592;1093;24039;-82
2021/08/19 03:31:56;;;;;;;4.98;2.78;;;;;;;12.67;75.95;96565.64;127640;1093;23725;-81
2021/08/19 03:34:28;;;;;;;5.90;3.15;;;;;;;12.71;75.93;96563.17;127709;1092;22845;-82
2021/08/19 03:36:59;;;;;;;4.30;2.70;;;;;;;12.72;75.70;96567.41;127580;1093;29696;-83
2021/08/19 03:39:31;;;;;;;4.98;2.68;;;;;;;12.76;75.87;96569.19;127604;1093;22937;-82
2021/08/19 03:42:03;;;;;;;7.13;2.85;;;;;;;12.80;75.91;96566.72;127606;1093;23448;-82
2021/08/19 03:44:34;;;;;;;5.00;2.78;;;;;;;12.82;76.15;96559.27;127563;1093;80065;-82
2021/08/19 03:47:06;;;;;;;3.90;2.45;;;;;;;12.86;76.20;96559.45;127550;1093;25588;-82
2021/08/19 03:49:37;;;;;;;4.38;2.50;;;;;;;12.88;76.24;96570.59;127524;1093;81225;-82
2021/08/19 03:52:09;;;;;;;6.30;3.10;;;;;;;12.92;75.99;96571.58;127540;1093;29979;-82
2021/08/19 03:54:40;;;;;;;4.40;2.78;;;;;;;12.96;75.86;96565.39;127522;1093;65562;-82
2021/08/19 03:57:12;;;;;;;6.35;2.90;;;;;;;13.01;75.88;96569.83;127581;1093;41808;-82
2021/08/19 03:59:43;;;;;;;3.88;2.30;;;;;;;13.06;76.01;96573.17;127552;1093;48312;-82
2021/08/19 04:02:15;;;;;;;5.18;3.00;;;;;;;13.11;75.91;96568.86;127591;1093;23095;-82
2021/08/19 04:04:46;;;;;;;4.53;2.78;;;;;;;13.15;75.63;96567.17;127594;1093;24704;-82
2021/08/19 04:07:18;;;;;;;5.83;2.78;;;;;;;13.23;75.56;96571.83;127699;1093;26258;-82
2021/08/19 04:09:49;;;;;;;7.98;4.38;;;;;;;13.29;75.50;96579.44;127596;1093;83228;-82
2021/08/19 04:12:21;;;;;;;6.85;3.93;;;;;;;13.34;75.63;96576.66;127592;1093;30099;-83
2021/08/19 04:14:53;;;;;;;6.35;2.95;;;;;;;13.36;75.25;96577.15;127530;1093;23975;-82
2021/08/19 04:17:24;;;;;;;4.28;3.00;;;;;;;13.39;75.23;96570.47;127623;1093;28464;-82
2021/08/19 04:19:56;;;;;;;4.13;3.10;;;;;;;13.41;75.30;96570.95;127560;1093;22832;-82
2021/08/19 04:22:27;;;;;;;3.60;2.23;;;;;;;13.44;75.20;96572.23;127577;1093;31945;-81
2021/08/19 04:24:59;;;;;;;5.43;2.73;;;;;;;13.47;75.17;96583.07;127578;1093;68944;-82
2021/08/19 04:27:30;;;;;;;4.20;2.78;;;;;;;13.51;75.08;96580.59;127560;1093;26407;-83
2021/08/19 04:30:02;;;;;;;8.73;4.55;;;;;;;13.58;75.11;96586.33;127592;1093;24974;-82
2021/08/19 04:32:33;;;;;;;6.18;2.70;;;;;;;13.62;75.01;96584.64;127632;1093;23251;-82
2021/08/19 04:35:05;;;;;;;3.43;1.80;;;;;;;13.69;74.84;96586.91;127594;1093;23345;-83
2021/08/19 04:37:37;;;;;;;3.75;2.30;;;;;;;13.74;74.80;96581.47;127543;1092;24097;-83
2021/08/19 04:40:10;;;;;;;5.97;2.37;;;;;;;13.76;74.71;96584.62;127578;1093;71977;-82
2021/08/19 04:42:42;;;;;;;6.35;2.90;;;;;;;13.78;74.79;96582.44;127581;1092;27045;-82
2021/08/19 04:45:15;;;;;;;3.75;2.33;;;;;;;13.80;74.85;96577.63;127637;1093;26803;-83
2021/08/19 04:47:46;;;;;;;3.88;2.70;;;;;;;13.85;74.52;96577.51;127648;1093;23040;-82
2021/08/19 04:50:18;;;;;;;4.08;2.70;;;;;;;13.87;74.47;96577.99;127636;1093;23772;-82
2021/08/19 04:52:49;;;;;;;3.93;2.40;;;;;;;13.89;74.57;96579.27;127656;1093;23433;-82
2021/08/19 04:55:20;;;;;;;3.33;2.48;;;;;;;14.00;74.64;96577.17;127621;1093;30034;-82
2021/08/19 04:57:52;;;;;;;3.50;2.25;;;;;;;14.10;74.66;96570.84;127539;1093;28392;-82
2021/08/19 05:00:23;;;;;;;3.45;2.13;;;;;;;14.15;74.31;96582.16;127588;1093;24572;-82
2021/08/19 05:02:55;;;;;;;3.23;2.20;;;;;;;14.18;74.19;96576.22;127568;1093;37970;-82
2021/08/19 05:05:26;;;;;;;3.93;2.40;;;;;;;14.21;74.27;96574.82;127583;1092;23651;-82
2021/08/19 05:07:58;;;;;;;4.48;2.60;;;;;;;14.23;74.09;96573.45;127586;1093;31677;-82
2021/08/19 05:10:29;;;;;;;3.45;2.38;;;;;;;14.28;74.28;96575.20;127628;1093;25531;-82
2021/08/19 05:13:00;;;;;;;4.00;2.33;;;;;;;14.37;74.16;96573.41;127582;1093;23896;-82
2021/08/19 05:15:32;;;;;;;4.43;2.30;;;;;;;14.47;73.97;96577.72;127604;1093;23477;-83
2021/08/19 05:18:03;;;;;;;3.73;2.30;;;;;;;14.54;73.84;96580.77;127610;1093;26938;-82
2021/08/19 05:20:35;;;;;;;4.88;2.35;;;;;;;14.58;73.71;96572.93;127601;1093;24477;-82
2021/08/19 05:23:07;;;;;;;3.45;2.33;;;;;;;14.66;73.73;96573.00;127575;1093;22985;-82
2021/08/19 05:25:39;;;;;;;3.58;2.30;;;;;;;14.81;73.83;96564.61;127589;1093;23600;-82
2021/08/19 05:28:11;;;;;;;5.38;2.40;;;;;;;14.97;73.52;96577.55;127562;1093;27889;-82
2021/08/19 05:30:42;;;;;;;4.08;2.18;;;;;;;15.20;72.83;96573.75;127605;1093;24486;-82
2021/08/19 05:33:14;;;;;;;4.30;2.48;;;;;;;15.68;73.29;96568.41;127572;1093;22868;-83
2021/08/19 05:35:45;;;;;;;3.05;2.10;;;;;;;16.92;72.50;96569.66;127646;1093;25559;-83
2021/08/19 05:38:17;;;;;;;3.65;2.10;;;;;;;19.30;70.72;96563.52;127685;1093;27282;-83
2021/08/19 05:40:49;;;;;;;3.40;2.18;;;;;;;21.64;66.94;96563.88;127749;1093;23018;-83
2021/08/19 05:43:21;;;;;;;2.68;1.98;;;;;;;23.02;61.36;96576.80;127668;1092;28185;-83
2021/08/19 05:45:53;;;;;;;3.10;1.83;;;;;;;24.69;61.29;96581.20;127753;1093;25605;-82
2021/08/19 05:48:25;;;;;;;3.48;2.10;;;;;;;25.96;57.79;96575.39;127573;1093;25911;-83
2021/08/19 05:50:56;;;;;;;5.43;1.70;;;;;;;26.76;55.48;96575.39;127591;1091;26469;-83
2021/08/19 05:53:28;;;;;;;1.85;1.40;;;;;;;27.18;52.94;96580.17;127563;1093;23166;-83
2021/08/19 05:56:00;;;;;;;2.40;1.88;;;;;;;27.79;50.69;96582.92;127584;1093;26370;-83
2021/08/19 05:58:32;;;;;;;3.05;2.03;;;;;;;28.63;50.20;96583.88;127566;1093;48426;-83
2021/08/19 06:01:05;;;;;;;1.98;1.73;;;;;;;28.94;46.74;96584.92;127623;1093;26557;-83
2021/08/19 06:03:37;;;;;;;3.85;2.18;;;;;;;29.31;47.32;96583.52;127604;1093;31021;-83
2021/08/19 06:06:08;;;;;;;3.98;1.93;;;;;;;29.99;45.35;96575.55;127584;1093;26269;-83
2021/08/19 06:08:40;;;;;;;2.28;1.70;;;;;;;31.17;45.88;96580.39;127605;1093;23169;-83
2021/08/19 06:11:11;;;;;;;2.80;1.90;;;;;;;32.33;43.14;96573.39;127582;1093;49611;-83
2021/08/19 06:13:43;;;;;;;3.08;1.93;;;;;;;32.58;41.79;96569.38;127585;1093;32067;-84
2021/08/19 06:16:15;;;;;;;2.30;1.50;;;;;;;32.92;41.00;96571.80;127583;1093;26595;-83
2021/08/19 06:18:46;;;;;;;2.43;1.63;;;;;;;33.11;39.41;96571.00;127621;1093;30589;-83
2021/08/19 06:21:19;;;;;;;4.55;2.90;;;;;;;32.73;38.88;96565.91;127665;1093;26370;-83
2021/08/19 06:23:51;;;;;;;2.70;1.53;;;;;;;32.57;38.78;96565.09;127615;1093;26451;-83
2021/08/19 06:26:22;;;;;;;1.68;1.43;;;;;;;31.15;37.91;96558.13;127529;1093;44416;-82
2021/08/19 06:28:55;;;;;;;2.68;1.50;;;;;;;29.68;38.06;96562.95;127582;1093;26258;-83
2021/08/19 06:31:35;;;;;;;3.23;1.60;;;;;;;28.05;39.27;96559.91;127551;1093;25743;-83
2021/08/19 06:34:07;;;;;;;2.58;1.73;;;;;;;26.75;40.78;96567.63;127552;1093;26157;-83
2021/08/19 06:36:38;;;;;;;1.30;1.10;;;;;;;27.50;41.76;96557.63;127603;1092;24248;-83
2021/08/19 06:39:10;;;;;;;2.55;1.53;;;;;;;28.08;40.23;96561.84;127568;1093;26203;-83
2021/08/19 06:41:41;;;;;;;2.63;1.80;;;;;;;27.68;39.81;96563.86;127572;1093;27116;-83
2021/08/19 06:44:13;;;;;;;1.38;1.28;;;;;;;28.59;41.31;96565.98;127569;1093;25285;-83
2021/08/19 06:46:44;;;;;;;2.68;1.55;;;;;;;30.80;39.38;96558.62;127583;1092;23297;-83
2021/08/19 06:49:16;;;;;;;1.88;1.50;;;;;;;32.47;38.94;96561.35;127545;1092;24874;-83
2021/08/19 06:51:47;;;;;;;1.80;1.28;;;;;;;34.16;37.26;96565.28;127601;1093;35599;-83
2021/08/19 06:54:19;;;;;;;2.35;1.50;;;;;;;35.10;34.55;96565.75;127629;1093;23420;-83
2021/08/19 06:56:51;;;;;;;1.58;1.48;;;;;;;35.47;34.44;96568.16;127644;1093;43854;-84
2021/08/19 06:59:23;;;;;;;1.58;1.40;;;;;;;36.37;33.39;96567.50;127563;1093;24768;-83
2021/08/19 07:01:55;;;;;;;2.88;1.55;;;;;;;36.47;32.44;96568.34;127593;1093;22869;-83
2021/08/19 07:04:26;;;;;;;1.60;1.30;;;;;;;36.81;32.14;96565.48;127506;1093;64121;-84
2021/08/19 07:06:58;;;;;;;2.55;1.40;;;;;;;36.68;29.68;96566.77;127589;1093;25254;-84
2021/08/19 07:09:30;;;;;;;1.38;1.10;;;;;;;36.77;31.64;96566.83;127600;1092;26286;-84
2021/08/19 07:12:01;;;;;;;1.43;1.33;;;;;;;37.30;28.79;96556.48;127607;1093;22829;-83
2021/08/19 07:14:33;;;;;;;7.90;4.80;;;;;;;35.73;28.60;96558.63;127631;1093;24586;-83
2021/08/19 07:17:05;;;;;;;2.67;1.87;;;;;;;35.81;27.58;96564.69;127610;1093;27522;-83
2021/08/19 07:19:37;;;;;;;1.65;1.35;;;;;;;35.50;27.43;96562.55;127532;1093;75514;-83
2021/08/19 07:22:09;;;;;;;6.75;3.35;;;;;;;35.70;28.64;96554.77;127570;1093;23402;-83
2021/08/19 07:24:40;;;;;;;1.33;1.20;;;;;;;36.32;27.24;96554.25;127642;1093;74236;-83
2021/08/19 07:27:12;;;;;;;4.50;2.80;;;;;;;35.45;28.76;96560.34;127720;1093;23822;-83
2021/08/19 07:29:44;;;;;;;1.68;1.30;;;;;;;34.94;28.61;96556.83;127739;1092;26646;-83
2021/08/19 07:32:19;;;;;;;2.08;1.60;;;;;;;33.70;28.98;96544.48;127716;1093;26373;-84
2021/08/19 07:34:51;;;;;;;1.85;1.30;;;;;;;32.19;30.81;96548.94;127592;1093;54367;-84
2021/08/19 07:37:22;;;;;;;3.50;1.53;;;;;;;31.84;31.96;96553.91;127539;1093;23843;-82
2021/08/19 07:39:54;;;;;;;2.78;1.60;;;;;;;30.81;31.50;96551.95;127559;1092;25634;-83
2021/08/19 07:42:26;;;;;;;2.25;1.73;;;;;;;30.48;32.57;96546.11;127601;1093;25566;-83
2021/08/19 07:44:57;;;;;;;2.13;1.78;;;;;;;31.09;33.36;96550.77;127575;1093;28259;-83
2021/08/19 07:47:29;;;;;;;3.45;2.10;;;;;;;32.07;32.47;96544.08;127574;1092;32855;-83
2021/08/19 07:50:01;;;;;;;2.50;1.57;;;;;;;34.58;31.80;96546.83;127590;1093;22814;-83
2021/08/19 07:52:33;;;;;;;2.85;1.70;;;;;;;35.59;29.15;96553.58;127599;1093;23669;-83
2021/08/19 07:55:04;;;;;;;1.80;1.45;;;;;;;36.28;30.14;96550.83;127550;1093;29418;-83
2021/08/19 07:57:46;;;;;;;1.90;1.23;;;;;;;37.57;29.12;96547.48;127543;1093;28840;-83
2021/08/19 08:00:22;;;;;;;1.40;1.18;;;;;;;38.56;25.29;96547.20;127629;1093;29372;-80
2021/08/19 08:02:54;;;;;;;3.33;1.85;;;;;;;37.28;26.07;96547.88;127598;1093;23796;-82
2021/08/19 08:05:27;;;;;;;3.75;2.55;;;;;;;36.96;24.17;96546.36;127565;1093;27126;-82
2021/08/19 08:08:04;;;;;;;2.05;1.10;;;;;;;35.49;25.13;96549.98;127621;1093;25646;-83
2021/08/19 08:10:38;;;;;;;1.88;1.58;;;;;;;34.92;24.74;96540.73;127612;1093;29350;-83
2021/08/19 08:13:11;;;;;;;1.73;1.23;;;;;;;33.75;26.12;96543.95;127628;1093;25654;-82
2021/08/19 08:15:43;;;;;;;2.20;1.68;;;;;;;33.72;27.59;96542.06;127560;1093;30094;-83
2021/08/19 08:18:19;;;;;;;2.35;1.48;;;;;;;33.59;27.15;96545.52;127564;1093;29302;-83
2021/08/19 08:20:51;;;;;;;2.08;1.70;;;;;;;33.81;29.09;96551.25;127682;1093;25993;-83
2021/08/19 08:23:22;;;;;;;1.90;1.28;;;;;;;34.81;28.08;96549.29;127673;1092;25064;-81
2021/08/19 08:25:55;;;;;;;1.83;1.20;;;;;;;34.07;27.28;96552.17;127704;1092;23139;-82
2021/08/19 08:28:30;;;;;;;1.50;1.25;;;;;;;31.93;27.28;96550.61;127648;1093;24279;-83
2021/08/19 08:31:03;;;;;;;4.25;2.25;;;;;;;28.89;30.23;96555.33;127589;1093;49269;-82
2021/08/19 08:33:35;;;;;;;3.00;2.10;;;;;;;26.99;33.16;96561.44;127600;1093;23323;-83
2021/08/19 08:36:07;;;;;;;8.80;5.00;;;;;;;25.64;35.84;96552.65;127584;1093;35009;-83
2021/08/19 08:38:38;;;;;;;2.83;2.33;;;;;;;25.35;37.05;96548.94;127581;1093;24568;-83
2021/08/19 08:41:10;;;;;;;2.80;1.80;;;;;;;25.23;37.37;96552.72;127539;1093;30898;-82
2021/08/19 08:43:41;;;;;;;3.88;1.50;;;;;;;25.45;38.62;96561.80;127527;1093;71525;-83
2021/08/19 08:46:16;;;;;;;2.60;1.73;;;;;;;25.90;38.23;96557.90;127547;1092;27262;-83
2021/08/19 08:48:51;;;;;;;1.98;1.40;;;;;;;26.17;37.61;96555.69;127660;1093;24439;-83
2021/08/19 08:51:24;;;;;;;1.98;1.35;;;;;;;26.13;36.94;96554.91;127577;1092;31654;-82
2021/08/19 08:53:55;;;;;;;2.80;1.50;;;;;;;25.99;37.95;96555.60;127584;1093;45999;-81
2021/08/19 08:56:28;;;;;;;2.73;1.70;;;;;;;25.43;37.47;96558.69;127584;1093;25893;-82
2021/08/19 08:59:01;;;;;;;3.25;2.20;;;;;;;24.49;38.94;96552.69;127596;1093;23603;-83
2021/08/19 09:01:32;;;;;;;1.80;1.70;;;;;;;23.71;39.96;96554.36;127528;1093;24314;-83
2021/08/19 09:04:04;;;;;;;2.30;1.53;;;;;;;23.43;41.50;96550.05;127558;1093;32397;-83
2021/08/19 09:06:41;;;;;;;3.10;2.08;;;;;;;23.38;41.29;96551.14;127615;1093;22848;-82
2021/08/19 09:09:21;;;;;;;2.23;1.80;;;;;;;23.01;42.00;96553.60;127592;1093;26296;-82
2021/08/19 09:11:54;;;;;;;;;;;;;;;22.42;42.92;96560.20;127611;1093;28969;-82
2021/08/19 09:14:28;;;;;;;10.53;4.10;;;;;;;21.78;44.67;96558.81;127554;1092;28426;-82
2021/08/19 09:17:00;;;;;;;9.83;3.73;;;;;;;21.52;44.92;96556.67;127631;1093;35315;-83
2021/08/19 09:19:35;;;;;;;3.18;2.30;;;;;;;21.50;46.06;96564.34;127597;1093;24138;-83
2021/08/19 09:22:09;;;;;;;5.38;2.83;;;;;;;21.79;46.17;96564.98;127577;1093;26254;-83
2021/08/19 09:24:40;;;;;;;4.60;2.33;;;;;;;22.03;46.78;96564.77;127597;1093;22801;-82
2021/08/19 09:27:14;;;;;;;4.98;2.18;;;;;;;22.11;46.58;96560.34;127570;1091;26004;-82
2021/08/19 09:29:48;;;;;;;2.10;1.75;;;;;;;22.16;46.70;96562.75;127569;1093;32582;-83
2021/08/19 09:32:22;;;;;;;3.55;1.95;;;;;;;22.14;46.37;96556.92;127614;1093;40856;-83
2021/08/19 09:34:54;;;;;;;2.43;1.50;;;;;;;21.89;46.51;96556.36;127528;1092;25898;-82
2021/08/19 09:37:26;;;;;;;3.03;1.77;;;;;;;21.64;46.78;96561.19;127570;1093;24237;-82
2021/08/19 09:40:00;;;;;;;3.35;1.30;;;;;;;21.47;47.06;96562.34;127560;1093;31947;-82
2021/08/19 09:42:40;;;;;;;2.38;1.78;;;;;;;21.37;47.28;96559.38;127558;1093;30563;-83
2021/08/19 09:45:24;;;;;;;3.08;1.80;;;;;;;21.18;47.51;96560.84;127630;1093;25370;-83
2021/08/19 09:48:09;;;;;;;2.85;1.50;;;;;;;21.10;48.46;96566.39;127613;1092;25718;-83
2021/08/19 09:50:41;;;;;;;2.45;1.70;;;;;;;21.08;48.79;96563.27;127557;1093;25626;-82
2021/08/19 09:53:26;;;;;;;2.83;1.65;;;;;;;21.02;49.61;96566.23;127611;1093;26600;-83
2021/08/19 09:55:58;;;;;;;3.48;2.00;;;;;;;20.87;49.36;96564.30;127628;1093;26277;-82
2021/08/19 09:58:34;;;;;;;2.40;1.73;;;;;;;20.73;49.51;96559.32;127543;1093;45125;-82
2021/08/19 10:01:06;;;;;;;2.95;1.88;;;;;;;20.64;50.41;96564.07;127617;1093;26442;-82
2021/08/19 10:03:38;;;;;;;2.70;1.58;;;;;;;20.62;50.13;96568.23;127548;1093;23994;-82
2021/08/19 10:06:11;;;;;;;2.90;1.93;;;;;;;20.60;50.43;96562.42;127647;1093;24235;-82
2021/08/19 10:08:43;;;;;;;2.97;1.80;;;;;;;20.82;51.16;96552.97;127640;1093;25705;-82
2021/08/19 10:11:16;;;;;;;2.25;1.63;;;;;;;20.96;50.29;96556.03;127507;1093;85046;-83
2021/08/19 10:13:50;;;;;;;3.73;2.23;;;;;;;21.06;51.02;96560.92;127631;1093;26014;-82
2021/08/19 10:16:23;;;;;;;2.78;1.80;;;;;;;21.03;50.32;96556.23;127652;1092;23515;-83
2021/08/19 10:18:56;;;;;;;3.00;2.17;;;;;;;20.90;50.46;96552.83;127613;1093;22832;-82
2021/08/19 10:21:30;;;;;;;3.58;2.05;;;;;;;20.90;50.49;96562.82;127621;1093;23974;-83
2021/08/19 10:24:04;;;;;;;2.30;1.70;;;;;;;20.99;50.39;96564.23;127548;1093;28504;-83
2021/08/19 10:26:37;;;;;;;3.03;1.60;;;;;;;20.95;49.75;96554.47;127595;1093;31306;-83
2021/08/19 10:29:09;;;;;;;2.25;1.83;;;;;;;21.07;50.71;96562.48;127562;1093;23353;-82
2021/08/19 10:31:57;;;;;;;3.08;1.83;;;;;;;21.15;50.84;96558.85;127578;1093;38126;-82
2021/08/19 10:34:57;;;;;;;2.23;1.75;;;;;;;21.18;50.44;96558.16;127631;1093;23416;-83
2021/08/19 10:38:03;;;;;;;2.08;1.50;;;;;;;21.20;49.65;96555.89;127654;1092;30317;-82
2021/08/19 10:40:37;;;;;;;4.13;2.20;;;;;;;21.13;49.93;96555.72;127576;1093;32601;-84
2021/08/19 10:43:45;;;;;;;3.20;1.48;;;;;;;21.13;50.28;96549.55;127556;1093;24243;-83
2021/08/19 10:46:17;;;;;;;2.55;1.63;;;;;;;21.05;49.54;96553.97;127551;1093;28521;-82
2021/08/19 10:48:53;;;;;;;1.53;1.10;;;;;;;21.03;49.42;96554.31;127550;1093;48863;-82
2021/08/19 10:51:30;;;;;;;3.30;1.60;;;;;;;21.01;49.30;96561.19;127607;1093;25448;-81
2021/08/19 10:54:22;;;;;;;1.67;1.23;;;;;;;21.02;49.71;96550.06;127572;1093;24387;-82
2021/08/19 10:56:53;;;;;;;1.98;1.60;;;;;;;21.03;49.36;96550.84;127528;1093;25446;-82
2021/08/19 10:59:34;;;;;;;4.48;2.00;;;;;;;21.01;49.15;96550.41;127619;1093;25068;-82
2021/08/19 11:02:04;;;;;;;;;;;;;;;20.92;50.48;96547.87;127729;1093;32043;-83
2021/08/19 11:04:47;;;;;;;2.87;1.80;;;;;;;20.95;50.15;96549.86;127568;1093;25927;-84
2021/08/19 11:07:49;;;;;;;2.23;1.73;;;;;;;20.87;49.78;96548.13;127648;1093;23797;-82
2021/08/19 11:10:28;;;;;;;26.10;13.28;;;;;;;20.63;50.27;96549.03;127712;1093;26258;-83
2021/08/19 11:13:05;;;;;;;16.33;9.23;;;;;;;20.50;51.19;96550.22;127602;1093;23893;-82
2021/08/19 11:15:46;;;;;;;10.28;6.73;;;;;;;20.34;50.74;96549.36;127609;1093;24778;-83
2021/08/19 11:18:29;;;;;;;21.58;12.23;;;;;;;20.16;50.54;96557.72;127668;1092;30459;-84
2021/08/19 11:21:01;;;;;;;5.80;3.73;;;;;;;20.08;50.88;96550.55;127549;1093;24200;-81
2021/08/19 11:23:36;;;;;;;4.15;2.45;;;;;;;20.06;50.56;96554.72;127589;1093;27138;-82
2021/08/19 11:26:10;;;;;;;4.73;1.85;;;;;;;20.04;51.45;96548.89;127549;1093;33620;-82
2021/08/19 11:28:44;;;;;;;2.80;1.70;;;;;;;20.07;51.28;96553.59;127585;1093;24978;-83
2021/08/19 11:31:20;;;;;;;2.43;1.90;;;;;;;20.07;51.33;96548.20;127574;1093;25487;-82
2021/08/19 11:34:00;;;;;;;2.55;1.50;;;;;;;20.12;52.14;96547.95;127674;1093;26418;-83
2021/08/19 11:36:33;;;;;;;2.23;1.58;;;;;;;20.31;51.54;96541.97;127625;1093;25136;-82
2021/08/19 11:39:07;;;;;;;1.80;1.23;;;;;;;20.62;51.42;96546.69;127590;1093;22909;-82
2021/08/19 11:41:38;;;;;;;2.25;1.08;;;;;;;20.91;50.04;96545.52;127594;1092;25028;-83
2021/08/19 11:44:10;;;;;;;3.40;1.20;;;;;;;21.02;49.70;96549.28;127624;1093;23004;-83
2021/08/19 11:46:42;;;;;;;1.65;1.35;;;;;;;21.10;49.30;96534.05;127588;1093;25285;-83
2021/08/19 11:49:17;;;;;;;2.58;1.20;;;;;;;21.19;49.56;96535.45;127569;1093;26825;-82
2021/08/19 11:51:49;;;;;;;1.43;1.10;;;;;;;21.17;49.38;96536.94;127677;1092;23235;-83